createdAt,value
2023-04-02T00:00:00.259Z,100910
2023-04-02T00:05:00.296Z,100940
2023-04-02T00:10:00.254Z,100950
2023-04-02T00:15:00.261Z,100940
2023-04-02T00:20:00.250Z,100940
2023-04-02T00:25:00.246Z,100950
2023-04-02T00:30:00.240Z,100950
2023-04-02T00:35:00.229Z,100970
2023-04-02T00:40:00.239Z,101000
2023-04-02T00:45:00.253Z,100980
2023-04-02T00:50:00.237Z,101010
2023-04-02T00:55:00.252Z,101010
2023-04-02T01:00:00.256Z,101000
2023-04-02T01:05:00.257Z,101010
2023-04-02T01:10:00.240Z,101030
2023-04-02T01:15:00.246Z,101040
2023-04-02T01:20:00.244Z,101060
2023-04-02T01:25:00.243Z,101050
2023-04-02T01:30:00.253Z,101090
2023-04-02T01:35:00.239Z,101080
2023-04-02T01:40:00.243Z,101080
2023-04-02T01:45:00.241Z,101100
2023-04-02T01:50:00.234Z,101090
2023-04-02T01:55:00.245Z,101100
2023-04-02T02:00:00.240Z,101090
2023-04-02T02:05:00.241Z,101120
2023-04-02T02:10:00.262Z,101140
2023-04-02T02:15:00.240Z,101140
2023-04-02T02:20:00.269Z,101160
2023-04-02T02:25:00.243Z,101140
2023-04-02T02:30:00.278Z,101170
2023-04-02T02:35:00.237Z,101180
2023-04-02T02:40:00.247Z,101220
2023-04-02T02:45:00.240Z,101200
2023-04-02T02:50:00.244Z,101210
2023-04-02T02:55:00.248Z,101220
2023-04-02T03:00:00.279Z,101230
2023-04-02T03:05:00.270Z,101220
2023-04-02T03:10:00.236Z,101250
2023-04-02T03:15:00.242Z,101260
2023-04-02T03:20:00.244Z,101280
2023-04-02T03:25:00.228Z,101280
2023-04-02T03:30:00.254Z,101280
2023-04-02T03:35:00.242Z,101300
2023-04-02T03:40:00.259Z,101320
2023-04-02T03:45:00.292Z,101310
2023-04-02T03:50:00.238Z,101330
2023-04-02T03:55:00.251Z,101350
2023-04-02T04:00:00.313Z,101350
2023-04-02T04:05:00.244Z,101350
2023-04-02T04:10:00.240Z,101370
2023-04-02T04:15:00.246Z,101380
2023-04-02T04:20:00.257Z,101400
2023-04-02T04:25:00.243Z,101410
2023-04-02T04:30:00.246Z,101410
2023-04-02T04:35:00.257Z,101410
2023-04-02T04:40:00.244Z,101440
2023-04-02T04:45:00.246Z,101430
2023-04-02T04:50:00.306Z,101450
2023-04-02T04:55:00.255Z,101470
2023-04-02T05:00:00.251Z,101490
2023-04-02T05:05:00.269Z,101490
2023-04-02T05:10:00.234Z,101520
2023-04-02T05:15:00.238Z,101520
2023-04-02T05:20:00.231Z,101560
2023-04-02T05:25:00.251Z,101560
2023-04-02T05:30:00.244Z,101550
2023-04-02T05:35:00.234Z,101560
2023-04-02T05:40:00.240Z,101600
2023-04-02T05:45:00.247Z,101590
2023-04-02T05:50:00.244Z,101610
2023-04-02T05:55:00.244Z,101630
2023-04-02T06:00:00.252Z,101620
2023-04-02T06:05:00.253Z,101650
2023-04-02T06:10:00.250Z,101680
2023-04-02T06:15:00.280Z,101670
2023-04-02T06:20:00.268Z,101670
2023-04-02T06:25:00.257Z,101700
2023-04-02T06:30:00.247Z,101690
2023-04-02T06:35:00.254Z,101700
2023-04-02T06:40:00.243Z,101730
2023-04-02T06:45:00.249Z,101720
2023-04-02T06:50:00.240Z,101740
2023-04-02T06:55:00.320Z,101750
2023-04-02T07:00:00.253Z,101740
2023-04-02T07:05:00.418Z,101750
2023-04-02T07:10:00.258Z,101800
2023-04-02T07:15:00.264Z,101800
2023-04-02T07:20:00.253Z,101810
2023-04-02T07:25:00.251Z,101830
2023-04-02T07:30:00.252Z,101820
2023-04-02T07:35:00.258Z,101850
2023-04-02T07:40:00.246Z,101880
2023-04-02T07:45:00.249Z,101860
2023-04-02T07:50:00.330Z,101880
2023-04-02T07:55:00.256Z,101880
2023-04-02T08:00:00.257Z,101870
2023-04-02T08:05:00.245Z,101890
2023-04-02T08:10:00.264Z,101900
2023-04-02T08:15:00.261Z,101890
2023-04-02T08:20:00.250Z,101900
2023-04-02T08:25:00.251Z,101910
2023-04-02T08:30:00.257Z,101920
2023-04-02T08:35:00.263Z,101940
2023-04-02T08:40:00.288Z,101940
2023-04-02T08:45:03.929Z,101940
2023-04-02T08:50:00.251Z,101950
2023-04-02T08:55:00.263Z,101970
2023-04-02T09:00:00.261Z,101980
2023-04-02T09:05:00.378Z,102000
2023-04-02T09:10:00.252Z,101990
2023-04-02T09:15:00.260Z,102010
2023-04-02T09:20:00.257Z,102010
2023-04-02T09:25:00.248Z,102040
2023-04-02T09:30:00.250Z,102030
2023-04-02T09:35:00.258Z,102040
2023-04-02T09:40:00.252Z,102060
2023-04-02T09:45:00.254Z,102040
2023-04-02T09:50:00.262Z,102060
2023-04-02T09:55:00.253Z,102090
2023-04-02T10:00:00.255Z,102070
2023-04-02T10:05:00.262Z,102090
2023-04-02T10:10:00.249Z,102110
2023-04-02T10:15:00.248Z,102120
2023-04-02T10:20:00.268Z,102120
2023-04-02T10:25:00.255Z,102110
2023-04-02T10:30:00.243Z,102120
2023-04-02T10:35:00.251Z,102150
2023-04-02T10:40:00.261Z,102170
2023-04-02T10:45:00.260Z,102150
2023-04-02T10:50:00.259Z,102170
2023-04-02T10:55:00.252Z,102150
2023-04-02T11:00:00.268Z,102170
2023-04-02T11:05:01.809Z,102150
2023-04-02T11:10:00.269Z,102140
2023-04-02T11:15:00.255Z,102190
2023-04-02T11:20:00.249Z,102170
2023-04-02T11:25:00.251Z,102170
2023-04-02T11:30:00.262Z,102180
2023-04-02T11:35:07.095Z,102160
2023-04-02T11:40:00.325Z,102170
2023-04-02T11:45:00.259Z,102170
2023-04-02T11:50:00.277Z,102180
2023-04-02T11:55:00.263Z,102160
2023-04-02T12:00:00.253Z,102160
2023-04-02T12:05:00.334Z,102200
2023-04-02T12:10:00.259Z,102190
2023-04-02T12:15:00.267Z,102160
2023-04-02T12:20:00.268Z,102180
2023-04-02T12:25:00.263Z,102190
2023-04-02T12:30:00.259Z,102210
2023-04-02T12:35:00.251Z,102200
2023-04-02T12:40:00.253Z,102200
2023-04-02T12:45:00.250Z,102210
2023-04-02T12:50:00.252Z,102220
2023-04-02T12:55:00.284Z,102230
2023-04-02T13:00:00.284Z,102220
2023-04-02T13:05:00.304Z,102240
2023-04-02T13:10:00.253Z,102210
2023-04-02T13:15:00.311Z,102220
2023-04-02T13:20:00.254Z,102220
2023-04-02T13:25:00.259Z,102240
2023-04-02T13:30:00.263Z,102230
2023-04-02T13:35:00.261Z,102210
2023-04-02T13:40:00.264Z,102220
2023-04-02T13:45:00.260Z,102220
2023-04-02T13:50:00.257Z,102230
2023-04-02T13:55:00.272Z,102230
2023-04-02T14:00:00.269Z,102210
2023-04-02T14:05:00.261Z,102240
2023-04-02T14:10:00.255Z,102230
2023-04-02T14:15:00.260Z,102220
2023-04-02T14:20:00.275Z,102240
2023-04-02T14:25:00.256Z,102250
2023-04-02T14:30:00.268Z,102260
2023-04-02T14:35:00.248Z,102240
2023-04-02T14:40:00.267Z,102270
2023-04-02T14:45:00.273Z,102260
2023-04-02T14:50:00.253Z,102240
2023-04-02T14:55:00.256Z,102260
2023-04-02T15:00:00.294Z,102270
2023-04-02T15:05:01.588Z,102260
2023-04-02T15:10:00.280Z,102270
2023-04-02T15:15:00.256Z,102280
2023-04-02T15:20:00.261Z,102270
2023-04-02T15:25:00.283Z,102270
2023-04-02T15:30:00.242Z,102290
2023-04-02T15:35:00.256Z,102290
2023-04-02T15:40:00.268Z,102280
2023-04-02T15:45:00.257Z,102270
2023-04-02T15:50:00.261Z,102290
2023-04-02T15:55:00.260Z,102300
2023-04-02T16:00:00.254Z,102300
2023-04-02T16:05:00.254Z,102300
2023-04-02T16:10:00.272Z,102320
2023-04-02T16:15:00.249Z,102300
2023-04-02T16:20:00.259Z,102300
2023-04-02T16:25:01.726Z,102340
2023-04-02T16:30:00.266Z,102330
2023-04-02T16:35:19.300Z,102330
2023-04-02T16:40:00.280Z,102360
2023-04-02T16:45:00.265Z,102340
2023-04-02T16:50:00.257Z,102330
2023-04-02T16:55:00.257Z,102320
2023-04-02T17:00:00.354Z,102350
2023-04-02T17:05:00.253Z,102360
2023-04-02T17:10:00.245Z,102380
2023-04-02T17:15:00.265Z,102380
2023-04-02T17:20:00.275Z,102380
2023-04-02T17:25:00.258Z,102400
2023-04-02T17:30:00.256Z,102400
2023-04-02T17:35:00.240Z,102400
2023-04-02T17:40:00.274Z,102400
2023-04-02T17:45:00.244Z,102390
2023-04-02T17:50:00.237Z,102410
2023-04-02T17:55:00.266Z,102430
2023-04-02T18:00:00.262Z,102450
2023-04-02T18:05:00.261Z,102460
2023-04-02T18:10:00.275Z,102450
2023-04-02T18:15:00.265Z,102460
2023-04-02T18:20:00.248Z,102480
2023-04-02T18:25:00.255Z,102490
2023-04-02T18:30:00.277Z,102510
2023-04-02T18:35:00.271Z,102500
2023-04-02T18:40:00.250Z,102510
2023-04-02T18:45:00.323Z,102510
2023-04-02T18:50:00.256Z,102520
2023-04-02T18:55:00.247Z,102520
2023-04-02T19:00:00.244Z,102510
2023-04-02T19:05:00.244Z,102550
2023-04-02T19:10:00.241Z,102560
2023-04-02T19:15:00.258Z,102580
2023-04-02T19:20:00.246Z,102570
2023-04-02T19:25:00.267Z,102570
2023-04-02T19:30:00.245Z,102600
2023-04-02T19:35:00.249Z,102590
2023-04-02T19:40:00.259Z,102560
2023-04-02T19:45:00.239Z,102580
2023-04-02T19:50:00.284Z,102630
2023-04-02T19:55:00.246Z,102600
2023-04-02T20:00:00.282Z,102620
2023-04-02T20:05:00.240Z,102610
2023-04-02T20:10:00.231Z,102610
2023-04-02T20:15:00.251Z,102620
2023-04-02T20:20:00.241Z,102640
2023-04-02T20:25:00.239Z,102620
2023-04-02T20:30:00.261Z,102630
2023-04-02T20:35:00.249Z,102640
2023-04-02T20:40:00.260Z,102630
2023-04-02T20:45:00.246Z,102650
2023-04-02T20:50:00.237Z,102660
2023-04-02T20:55:00.257Z,102680
2023-04-02T21:00:00.248Z,102710
2023-04-02T21:05:00.325Z,102690
2023-04-02T21:10:00.258Z,102680
2023-04-02T21:15:02.566Z,102710
2023-04-02T21:20:00.264Z,102710
2023-04-02T21:25:00.252Z,102710
2023-04-02T21:30:00.266Z,102720
2023-04-02T21:35:00.240Z,102760
2023-04-02T21:40:00.262Z,102740
2023-04-02T21:45:00.245Z,102740
2023-04-02T21:50:00.252Z,102720
2023-04-02T21:55:00.242Z,102730
2023-04-02T22:00:00.247Z,102750
2023-04-02T22:05:00.238Z,102740
2023-04-02T22:10:00.245Z,102750
2023-04-02T22:15:00.258Z,102750
2023-04-02T22:20:00.233Z,102760
2023-04-02T22:25:00.275Z,102740
2023-04-02T22:30:00.268Z,102760
2023-04-02T22:35:00.240Z,102760
2023-04-02T22:40:00.246Z,102760
2023-04-02T22:45:00.233Z,102780
2023-04-02T22:50:00.242Z,102770
2023-04-02T22:55:00.245Z,102780
2023-04-02T23:00:00.240Z,102760
2023-04-02T23:05:00.279Z,102760
2023-04-02T23:10:00.247Z,102770
2023-04-02T23:15:00.255Z,102790
2023-04-02T23:20:00.237Z,102790
2023-04-02T23:25:00.249Z,102780
2023-04-02T23:30:00.238Z,102790
2023-04-02T23:35:00.245Z,102810
2023-04-02T23:40:00.262Z,102810
2023-04-02T23:45:00.254Z,102800
2023-04-02T23:50:00.244Z,102790
2023-04-02T23:55:00.251Z,102820
